Time;durP1;ratioP1;P1;durP2;ratioP2;P2;SDS_P1;SDS_P2;PMS_P1;PMS_P2;Temp;Humidity;BMP_temperature;BMP_pressure;BME280_temperature;BME280_humidity;BME280_pressure;Samples;Min_cycle;Max_cycle;Signal;HPM_P1;HPM_P2
2021/08/19 00:00:45;;;;;;;9.77;6.60;;;;;;;17.44;70.25;100979.84;2615951;54;20162;-76
2021/08/19 00:03:11;;;;;;;8.43;6.17;;;;;;;17.56;70.51;100966.84;2615690;54;20143;-77
2021/08/19 00:05:36;;;;;;;9.20;6.40;;;;;;;17.39;71.15;100968.63;2615665;47;20136;-76
2021/08/19 00:08:01;;;;;;;9.20;6.30;;;;;;;17.39;71.22;100976.41;2615887;54;20153;-77
2021/08/19 00:10:26;;;;;;;7.20;6.37;;;;;;;17.54;70.80;100978.94;2615598;54;20147;-75
2021/08/19 00:12:52;;;;;;;7.10;6.23;;;;;;;17.33;72.15;100977.31;2616385;54;20692;-78
2021/08/19 00:15:17;;;;;;;8.90;6.93;;;;;;;17.27;72.44;100979.06;2616779;46;20147;-77
2021/08/19 00:17:42;;;;;;;9.00;6.93;;;;;;;17.09;72.94;100974.00;2617150;39;20577;-75
2021/08/19 00:20:08;;;;;;;6.87;6.17;;;;;;;17.25;72.94;100973.03;2616593;54;20128;-77
2021/08/19 00:22:34;;;;;;;9.90;6.43;;;;;;;16.93;73.74;100986.13;2616911;54;20143;-75
2021/08/19 00:25:00;;;;;;;6.93;5.90;;;;;;;16.87;73.77;100978.41;2616685;54;20169;-77
2021/08/19 00:27:25;;;;;;;6.60;5.57;;;;;;;16.91;73.83;100977.50;2616646;54;20151;-76
2021/08/19 00:29:51;;;;;;;5.93;5.13;;;;;;;17.06;72.74;100974.88;2616678;54;20139;-77
2021/08/19 00:32:16;;;;;;;6.17;5.20;;;;;;;17.22;71.76;100970.47;2617260;39;20645;-77
2021/08/19 00:34:41;;;;;;;6.43;5.73;;;;;;;17.18;71.93;100972.19;2616236;54;20140;-77
2021/08/19 00:37:08;;;;;;;8.13;5.20;;;;;;;16.86;73.33;100976.66;2617260;39;20563;-76
2021/08/19 00:39:34;;;;;;;8.87;6.03;;;;;;;17.02;72.47;100965.41;2616565;54;20138;-76
2021/08/19 00:41:59;;;;;;;7.20;5.80;;;;;;;16.84;72.83;100974.94;2616634;54;20128;-75
2021/08/19 00:44:24;;;;;;;8.43;6.10;;;;;;;16.94;72.69;100974.91;2616614;54;20665;-78
2021/08/19 00:46:50;;;;;;;8.53;6.27;;;;;;;16.99;72.69;100972.31;2617071;54;20120;-77
2021/08/19 00:49:15;;;;;;;9.53;6.93;;;;;;;16.93;72.70;100978.38;2617518;54;20171;-77
2021/08/19 00:51:49;;;;;;;7.70;6.17;;;;;;;16.77;72.99;100971.53;2618474;54;20124;-77
2021/08/19 00:54:18;;;;;;;9.13;6.67;;;;;;;16.73;73.37;100979.31;2617738;54;20144;-75
2021/08/19 00:56:43;;;;;;;8.27;7.10;;;;;;;16.63;73.29;100978.47;2617023;54;20131;-76
2021/08/19 00:59:10;;;;;;;10.43;6.83;;;;;;;16.56;73.51;100978.50;2616778;54;20159;-75
2021/08/19 01:01:36;;;;;;;8.57;6.80;;;;;;;16.42;74.55;100980.25;2616838;54;20139;-75
2021/08/19 01:04:04;;;;;;;8.80;6.37;;;;;;;16.47;73.95;100987.13;2616473;54;20159;-77
2021/08/19 01:06:29;;;;;;;9.07;6.70;;;;;;;16.36;74.36;100986.28;2616809;54;20171;-77
2021/08/19 01:08:54;;;;;;;7.37;6.77;;;;;;;16.50;73.78;100987.16;2616518;47;20151;-76
2021/08/19 01:11:21;;;;;;;9.40;6.67;;;;;;;16.39;74.05;100990.59;2616606;54;20138;-77
2021/08/19 01:13:47;;;;;;;8.63;6.80;;;;;;;16.24;74.28;100983.69;2616535;54;20219;-76
2021/08/19 01:16:15;;;;;;;7.63;6.53;;;;;;;16.33;73.89;100986.28;2615804;47;20235;-77
2021/08/19 01:18:42;;;;;;;10.30;7.03;;;;;;;16.22;74.65;100992.31;2616321;54;20163;-77
2021/08/19 01:21:14;;;;;;;9.67;7.27;;;;;;;16.25;74.22;100992.34;2616548;54;20139;-78
2021/08/19 01:23:40;;;;;;;8.67;6.40;;;;;;;16.29;74.61;100988.84;2616683;39;20550;-76
2021/08/19 01:26:13;;;;;;;8.00;7.20;;;;;;;16.46;73.55;100984.56;2616608;54;20162;-77
2021/08/19 01:28:39;;;;;;;7.73;6.77;;;;;;;16.67;72.75;100977.59;2615626;47;20218;-77
2021/08/19 01:31:06;;;;;;;8.70;7.13;;;;;;;16.63;72.42;100973.28;2616646;54;20142;-75
2021/08/19 01:33:32;;;;;;;7.37;6.00;;;;;;;16.35;73.73;100974.19;2616329;54;20144;-76
2021/08/19 01:35:58;;;;;;;8.33;7.03;;;;;;;16.45;73.79;100977.66;2616448;54;20740;-76
2021/08/19 01:38:31;;;;;;;12.23;7.60;;;;;;;16.30;74.29;100977.69;2616357;54;20187;-75
2021/08/19 01:40:57;;;;;;;8.20;6.90;;;;;;;16.34;74.04;100984.56;2616474;54;20128;-77
2021/08/19 01:43:24;;;;;;;9.60;7.43;;;;;;;16.46;73.10;100985.44;2615891;54;20152;-77
2021/08/19 01:45:50;;;;;;;9.17;7.13;;;;;;;16.36;73.47;100982.81;2616467;54;20980;-75
2021/08/19 01:48:15;;;;;;;12.27;7.07;;;;;;;16.55;73.07;100984.53;2616043;54;20187;-76
2021/08/19 01:50:40;;;;;;;8.20;7.40;;;;;;;16.38;73.35;100986.25;2616445;54;20175;-77
2021/08/19 01:53:05;;;;;;;10.07;6.83;;;;;;;16.49;73.11;100987.97;2616705;47;20748;-74
2021/08/19 01:55:31;;;;;;;10.50;7.03;;;;;;;16.43;72.88;100977.66;2616344;54;20148;-76
2021/08/19 01:57:56;;;;;;;9.23;7.13;;;;;;;16.44;72.72;100981.97;2616615;54;20163;-76
2021/08/19 02:00:21;;;;;;;8.53;6.27;;;;;;;16.45;72.84;100980.25;2616232;54;20139;-78
2021/08/19 02:02:47;;;;;;;10.27;7.10;;;;;;;16.32;73.32;100983.69;2616252;54;20150;-76
2021/08/19 02:05:12;;;;;;;9.50;7.43;;;;;;;16.62;71.97;100979.34;2616333;54;20185;-76
2021/08/19 02:07:38;;;;;;;7.97;7.00;;;;;;;16.54;72.34;100973.31;2616173;54;20163;-75
2021/08/19 02:10:03;;;;;;;10.63;6.50;;;;;;;16.59;72.53;100975.91;2616113;54;20134;-75
2021/08/19 02:12:28;;;;;;;9.50;7.50;;;;;;;16.44;73.10;100971.63;2616373;54;20278;-77
2021/08/19 02:14:54;;;;;;;8.30;7.50;;;;;;;16.56;72.35;100978.50;2616653;39;20565;-77
2021/08/19 02:17:19;;;;;;;9.57;8.10;;;;;;;16.59;72.44;100986.25;2616360;47;20243;-78
2021/08/19 02:19:44;;;;;;;11.40;7.93;;;;;;;16.56;72.48;100975.91;2616322;54;20127;-75
2021/08/19 02:22:09;;;;;;;11.83;8.33;;;;;;;16.55;72.55;100979.38;2616508;46;20131;-76
2021/08/19 02:24:35;;;;;;;9.97;7.90;;;;;;;16.56;72.43;100978.50;2616185;47;20163;-77
2021/08/19 02:27:00;;;;;;;11.50;9.13;;;;;;;16.49;72.71;100975.06;2616081;54;20172;-76
2021/08/19 02:29:25;;;;;;;13.13;8.43;;;;;;;16.44;72.97;100984.56;2616290;46;20677;-77
2021/08/19 02:31:50;;;;;;;10.20;8.40;;;;;;;16.44;73.45;100987.13;2616215;47;20173;-76
2021/08/19 02:34:16;;;;;;;11.07;8.87;;;;;;;16.38;73.79;100994.00;2616008;54;20132;-78
2021/08/19 02:36:41;;;;;;;11.07;8.83;;;;;;;16.46;73.11;100987.13;2616398;47;20194;-75
2021/08/19 02:39:06;;;;;;;9.23;8.23;;;;;;;16.45;73.33;100988.88;2616081;54;20179;-75
2021/08/19 02:41:31;;;;;;;10.13;9.13;;;;;;;16.40;73.85;100989.75;2616501;46;20158;-76
2021/08/19 02:43:57;;;;;;;10.37;9.47;;;;;;;16.21;74.48;100988.03;2616075;54;20147;-76
2021/08/19 02:46:22;;;;;;;11.67;9.40;;;;;;;16.36;73.94;100991.44;2615667;54;20246;-76
2021/08/19 02:48:47;;;;;;;12.73;9.20;;;;;;;16.51;73.31;100991.44;2616462;46;20177;-76
2021/08/19 02:51:12;;;;;;;9.90;8.90;;;;;;;16.60;73.08;100986.25;2616369;47;20128;-76
2021/08/19 02:53:37;;;;;;;17.33;9.67;;;;;;;16.34;74.08;100995.75;2616105;54;20209;-77
2021/08/19 02:56:04;;;;;;;11.50;9.60;;;;;;;16.40;73.98;100984.56;2616881;39;20638;-77
2021/08/19 02:58:29;;;;;;;11.10;9.80;;;;;;;16.49;73.93;100993.16;2616236;54;20167;-77
2021/08/19 03:00:54;;;;;;;10.13;9.13;;;;;;;16.42;74.32;101001.81;2616401;47;20230;-75
2021/08/19 03:03:19;;;;;;;11.50;9.47;;;;;;;16.42;74.08;100996.63;2616892;31;20563;-77
2021/08/19 03:05:45;;;;;;;10.77;9.67;;;;;;;16.46;74.15;100984.56;2616305;47;20178;-76
2021/08/19 03:08:10;;;;;;;13.17;9.10;;;;;;;16.48;74.30;100990.59;2616005;54;20258;-75
2021/08/19 03:10:35;;;;;;;11.00;9.13;;;;;;;16.38;74.68;100992.28;2615941;47;20207;-76
2021/08/19 03:13:00;;;;;;;10.30;9.20;;;;;;;16.49;74.46;100987.97;2616097;54;20207;-76
2021/08/19 03:15:26;;;;;;;9.90;8.90;;;;;;;16.53;73.72;100986.28;2616060;54;20171;-77
2021/08/19 03:17:51;;;;;;;12.40;9.93;;;;;;;16.41;74.67;100997.50;2616264;54;20266;-77
2021/08/19 03:20:17;;;;;;;13.07;9.40;;;;;;;16.37;75.01;100997.47;2616313;54;20645;-77
2021/08/19 03:22:42;;;;;;;10.00;9.03;;;;;;;16.48;75.39;100998.34;2616119;54;20268;-77
2021/08/19 03:25:09;;;;;;;12.23;9.73;;;;;;;16.38;75.21;100997.47;2616101;54;20162;-78
2021/08/19 03:27:34;;;;;;;13.53;9.10;;;;;;;16.27;75.89;100995.75;2615855;54;20210;-77
2021/08/19 03:30:00;;;;;;;11.10;8.23;;;;;;;16.34;75.33;100994.91;2615820;54;20132;-76
2021/08/19 03:32:25;;;;;;;11.37;7.87;;;;;;;16.26;75.59;100996.63;2615935;54;20223;-77
2021/08/19 03:34:50;;;;;;;9.53;8.53;;;;;;;16.19;75.63;100994.91;2616310;47;20136;-77
2021/08/19 03:37:15;;;;;;;9.87;8.23;;;;;;;16.09;76.68;100988.03;2615922;54;20155;-76
2021/08/19 03:39:41;;;;;;;9.10;8.20;;;;;;;16.31;76.01;100990.56;2615928;54;20140;-76
2021/08/19 03:42:06;;;;;;;13.10;8.50;;;;;;;16.36;75.30;100994.03;2615234;54;20134;-76
2021/08/19 03:44:32;;;;;;;11.33;8.37;;;;;;;16.36;75.63;100995.75;2615855;54;20626;-77
2021/08/19 03:46:58;;;;;;;9.83;8.17;;;;;;;16.31;75.96;100990.56;2616680;54;20115;-77
2021/08/19 03:49:23;;;;;;;11.37;8.77;;;;;;;16.35;76.05;100999.19;2616073;47;20173;-76
2021/08/19 03:51:49;;;;;;;9.53;8.63;;;;;;;16.29;77.00;100999.19;2616804;54;20147;-76
2021/08/19 03:54:14;;;;;;;9.27;7.57;;;;;;;16.25;77.04;101000.94;2617066;54;20127;-74
2021/08/19 03:56:39;;;;;;;10.00;7.63;;;;;;;16.31;76.50;101008.66;2617174;54;20134;-78
2021/08/19 03:59:06;;;;;;;10.20;8.00;;;;;;;16.32;77.32;101015.56;2617032;54;20183;-76
2021/08/19 04:01:31;;;;;;;10.30;7.30;;;;;;;16.31;77.31;101019.00;2617110;54;20180;-77
2021/08/19 04:03:57;;;;;;;8.80;7.90;;;;;;;16.23;77.91;101028.50;2616192;54;20135;-78
2021/08/19 04:06:22;;;;;;;8.80;7.93;;;;;;;16.08;78.44;101022.47;2617511;54;20252;-76
2021/08/19 04:08:47;;;;;;;9.73;8.30;;;;;;;16.13;78.98;101016.47;2616831;54;20263;-77
2021/08/19 04:11:12;;;;;;;9.43;7.70;;;;;;;16.06;79.21;101017.31;2616962;54;20119;-75
2021/08/19 04:13:41;;;;;;;10.70;7.57;;;;;;;16.03;79.46;101022.47;2616984;46;20649;-77
2021/08/19 04:16:07;;;;;;;10.73;7.17;;;;;;;16.00;79.12;101019.03;2616693;54;20211;-76
2021/08/19 04:18:32;;;;;;;8.63;6.77;;;;;;;15.85;79.68;101017.31;2616927;54;20705;-76
2021/08/19 04:20:57;;;;;;;8.20;7.10;;;;;;;15.81;79.95;101017.28;2616793;54;20387;-76
2021/08/19 04:23:23;;;;;;;9.63;7.87;;;;;;;15.77;80.36;101020.72;2616695;54;20175;-78
2021/08/19 04:25:49;;;;;;;8.50;7.57;;;;;;;15.85;79.09;101022.47;2616951;46;20127;-76
2021/08/19 04:28:15;;;;;;;10.40;7.07;;;;;;;15.81;79.41;101031.09;2616589;54;20142;-77
2021/08/19 04:30:40;;;;;;;7.27;6.23;;;;;;;15.88;79.21;101025.03;2616600;54;20119;-78
2021/08/19 04:33:05;;;;;;;9.23;7.07;;;;;;;15.91;79.54;101027.63;2616863;46;20128;-74
2021/08/19 04:35:31;;;;;;;8.33;7.23;;;;;;;15.88;79.22;101022.47;2616728;54;20158;-76
2021/08/19 04:37:57;;;;;;;7.93;6.37;;;;;;;15.95;78.85;101034.53;2616666;54;20141;-77
2021/08/19 04:40:23;;;;;;;7.87;6.80;;;;;;;15.84;79.40;101032.81;2616473;46;20140;-77
2021/08/19 04:42:48;;;;;;;7.20;6.50;;;;;;;16.04;78.40;101036.25;2634193;36;20219;-80
2021/08/19 04:45:13;;;;;;;8.20;7.40;;;;;;;15.84;79.35;101031.06;2616667;46;20899;-77
2021/08/19 04:47:38;;;;;;;7.73;6.33;;;;;;;15.84;78.13;101018.16;2616695;54;20223;-77
2021/08/19 04:50:04;;;;;;;7.60;5.87;;;;;;;15.97;77.40;101021.63;2616775;54;20124;-76
2021/08/19 04:52:29;;;;;;;5.83;4.20;;;;;;;15.92;77.63;101015.56;2617196;39;20543;-77
2021/08/19 04:54:55;;;;;;;7.13;4.90;;;;;;;15.98;77.36;101006.09;2617967;39;20867;-75
2021/08/19 04:57:20;;;;;;;6.67;5.50;;;;;;;16.25;76.94;101018.19;2617851;47;20942;-75
2021/08/19 04:59:45;;;;;;;6.37;5.27;;;;;;;16.07;78.10;101016.44;2617937;46;20223;-75
2021/08/19 05:02:10;;;;;;;8.87;6.10;;;;;;;15.79;78.92;101022.44;2616784;46;20126;-77
2021/08/19 05:04:36;;;;;;;7.03;6.33;;;;;;;15.93;78.42;101019.91;2616637;47;20123;-77
2021/08/19 05:07:01;;;;;;;6.23;5.63;;;;;;;15.96;78.72;101031.09;2616502;54;20127;-77
2021/08/19 05:09:26;;;;;;;7.13;5.63;;;;;;;16.08;78.20;101022.47;2615571;47;20167;-75
2021/08/19 05:11:52;;;;;;;8.07;5.97;;;;;;;16.11;78.15;101019.91;2616282;54;20222;-77
2021/08/19 05:14:17;;;;;;;7.73;6.73;;;;;;;16.03;78.61;101029.38;2617131;39;20582;-77
2021/08/19 05:16:42;;;;;;;9.37;6.37;;;;;;;16.13;78.40;101028.50;2616446;47;20122;-76
2021/08/19 05:19:07;;;;;;;8.43;7.27;;;;;;;16.30;78.24;101019.88;2616226;54;20275;-77
2021/08/19 05:21:33;;;;;;;9.10;8.20;;;;;;;16.24;78.18;101029.34;2616503;54;20134;-76
2021/08/19 05:23:58;;;;;;;8.83;7.73;;;;;;;16.34;78.05;101028.50;2617116;39;20609;-76
2021/08/19 05:26:23;;;;;;;8.83;7.93;;;;;;;16.33;78.29;101037.09;2616742;47;20229;-75
2021/08/19 05:28:48;;;;;;;12.40;9.40;;;;;;;16.40;78.48;101031.94;2616455;54;20138;-77
2021/08/19 05:31:14;;;;;;;12.27;9.30;;;;;;;16.32;78.71;101035.38;2615893;47;20158;-75
2021/08/19 05:33:42;;;;;;;12.80;9.10;;;;;;;16.56;77.38;101045.72;2616995;39;20519;-76
2021/08/19 05:36:09;;;;;;;9.40;8.23;;;;;;;16.56;77.71;101041.41;2616640;54;20653;-78
2021/08/19 05:38:35;;;;;;;10.90;9.37;;;;;;;16.48;77.46;101045.72;2616384;54;20132;-76
2021/08/19 05:41:00;;;;;;;10.83;8.80;;;;;;;16.29;78.42;101043.13;2617124;31;20621;-77
2021/08/19 05:43:26;;;;;;;12.43;8.40;;;;;;;16.21;78.94;101047.47;2616703;54;20152;-75
2021/08/19 05:45:51;;;;;;;10.67;7.97;;;;;;;16.32;78.14;101048.31;2616628;54;20135;-77
2021/08/19 05:48:16;;;;;;;11.33;7.63;;;;;;;16.30;78.28;101045.72;2616609;47;20144;-78
2021/08/19 05:50:41;;;;;;;11.17;8.23;;;;;;;16.32;77.83;101049.19;2616706;54;20123;-76
2021/08/19 05:53:07;;;;;;;10.00;7.33;;;;;;;16.37;77.60;101057.78;2617015;39;20545;-76
2021/08/19 05:55:33;;;;;;;10.40;6.87;;;;;;;16.27;78.12;101053.50;2616694;54;20139;-79
2021/08/19 05:57:59;;;;;;;9.00;7.53;;;;;;;16.45;77.36;101053.50;2616774;54;20140;-76
2021/08/19 06:00:25;;;;;;;8.47;6.90;;;;;;;16.52;77.71;101062.09;2616539;54;20133;-79
2021/08/19 06:02:52;;;;;;;9.77;7.33;;;;;;;16.76;76.86;101062.91;2617141;39;20588;-77
2021/08/19 06:05:17;;;;;;;8.70;7.20;;;;;;;16.78;76.21;101060.34;2617230;54;20173;-77
2021/08/19 06:07:43;;;;;;;8.43;6.50;;;;;;;16.82;76.25;101065.53;2619803;54;20135;-79
2021/08/19 06:10:09;;;;;;;7.60;6.37;;;;;;;16.87;75.66;101063.78;2620932;54;20652;-80
2021/08/19 06:12:36;;;;;;;7.87;6.40;;;;;;;16.87;75.78;101068.06;2619540;47;20235;-80
2021/08/19 06:15:02;;;;;;;8.30;6.40;;;;;;;17.04;74.86;101067.16;2618145;39;20833;-77
2021/08/19 06:17:27;;;;;;;9.40;6.40;;;;;;;17.18;74.66;101069.72;2617170;54;20661;-75
2021/08/19 06:19:53;;;;;;;10.37;6.37;;;;;;;17.03;74.81;101069.75;2617924;54;20136;-77
2021/08/19 06:22:18;;;;;;;9.17;6.67;;;;;;;16.89;75.31;101071.50;2618121;54;20243;-78
2021/08/19 06:24:43;;;;;;;8.00;6.57;;;;;;;16.88;75.45;101080.13;2619287;47;20139;-78
2021/08/19 06:27:09;;;;;;;7.23;5.43;;;;;;;16.92;75.74;101074.09;2619795;47;20981;-78
2021/08/19 06:29:34;;;;;;;6.90;6.20;;;;;;;16.87;75.14;101083.59;2619931;54;20170;-79
2021/08/19 06:31:59;;;;;;;8.07;6.10;;;;;;;16.95;75.31;101079.28;2619018;39;20520;-77
2021/08/19 06:34:25;;;;;;;8.73;5.57;;;;;;;17.02;75.46;101081.84;2618161;47;20252;-77
2021/08/19 06:36:50;;;;;;;8.43;5.90;;;;;;;17.03;75.60;101080.97;2617695;54;20159;-77
2021/08/19 06:39:15;;;;;;;6.83;5.60;;;;;;;17.20;74.38;101080.91;2617329;54;20154;-78
2021/08/19 06:41:41;;;;;;;6.17;5.40;;;;;;;17.08;74.97;101081.81;2617038;47;20152;-77
2021/08/19 06:44:06;;;;;;;8.37;5.73;;;;;;;17.11;74.96;101083.53;2616965;54;20154;-77
2021/08/19 06:46:31;;;;;;;8.20;5.53;;;;;;;17.08;75.55;101076.63;2617482;39;20538;-79
2021/08/19 06:48:56;;;;;;;8.40;5.53;;;;;;;17.30;74.65;101082.59;2616237;54;20151;-76
2021/08/19 06:51:22;;;;;;;7.10;4.73;;;;;;;17.30;74.14;101077.41;2616796;47;20691;-76
2021/08/19 06:53:47;;;;;;;8.17;5.63;;;;;;;17.46;73.75;101077.38;2617019;54;20119;-78
2021/08/19 06:56:12;;;;;;;5.53;4.63;;;;;;;17.47;73.26;101088.59;2616929;47;20159;-77
2021/08/19 06:58:38;;;;;;;9.97;5.37;;;;;;;17.44;73.17;101086.88;2616680;54;20394;-77
2021/08/19 07:01:04;;;;;;;7.20;5.17;;;;;;;17.59;73.33;101084.22;2617089;54;20152;-75
2021/08/19 07:03:29;;;;;;;9.23;5.60;;;;;;;17.60;73.48;101082.50;2616819;54;20115;-77
2021/08/19 07:05:54;;;;;;;6.27;4.90;;;;;;;17.73;73.09;101071.19;2616973;54;20180;-77
2021/08/19 07:08:20;;;;;;;6.90;5.00;;;;;;;17.86;72.44;101080.59;2617042;54;20131;-77
2021/08/19 07:10:45;;;;;;;8.63;5.50;;;;;;;17.83;72.54;101081.47;2616688;54;20138;-77
2021/08/19 07:13:11;;;;;;;7.73;5.57;;;;;;;17.93;72.17;101084.88;2616855;54;20131;-76
2021/08/19 07:15:36;;;;;;;7.67;5.67;;;;;;;17.89;71.90;101085.75;2616769;54;20124;-77
2021/08/19 07:18:02;;;;;;;9.57;5.70;;;;;;;18.19;71.45;101093.34;2616342;54;20134;-77
2021/08/19 07:20:27;;;;;;;10.87;6.60;;;;;;;17.85;72.40;101097.88;2616793;54;20143;-76
2021/08/19 07:22:53;;;;;;;7.97;6.30;;;;;;;18.03;71.98;101096.91;2617768;54;20116;-77
2021/08/19 07:25:21;;;;;;;9.73;6.57;;;;;;;17.86;72.62;101096.13;2617769;47;20134;-76
2021/08/19 07:27:47;;;;;;;7.43;6.50;;;;;;;17.90;73.04;101093.53;2617689;54;20131;-78
2021/08/19 07:30:12;;;;;;;10.97;6.90;;;;;;;17.85;73.11;101103.06;2617452;54;20138;-78
2021/08/19 07:32:38;;;;;;;8.20;6.13;;;;;;;17.80;72.80;101101.38;2617383;54;20139;-77
2021/08/19 07:35:04;;;;;;;8.23;5.57;;;;;;;17.71;73.65;101112.66;2617638;47;20212;-77
2021/08/19 07:37:30;;;;;;;9.87;5.80;;;;;;;17.53;74.18;101109.28;2618189;39;20552;-79
2021/08/19 07:39:56;;;;;;;6.67;5.67;;;;;;;17.31;75.76;101111.06;2618991;54;20142;-78
2021/08/19 07:42:21;;;;;;;9.20;6.40;;;;;;;17.20;77.00;101117.13;2619429;54;20259;-78
2021/08/19 07:44:46;;;;;;;8.87;6.93;;;;;;;17.00;78.11;101124.94;2619292;54;20142;-78
2021/08/19 07:47:11;;;;;;;8.83;6.70;;;;;;;17.08;78.70;101123.22;2619129;47;20764;-78
2021/08/19 07:49:37;;;;;;;11.13;7.87;;;;;;;17.07;79.02;101125.81;2619571;46;20239;-81
2021/08/19 07:52:02;;;;;;;8.90;7.60;;;;;;;17.07;78.13;101126.69;2618587;54;20215;-78
2021/08/19 07:54:28;;;;;;;9.43;7.90;;;;;;;17.02;78.67;101120.66;2619123;54;20143;-78
2021/08/19 07:56:53;;;;;;;8.37;7.57;;;;;;;16.94;79.27;101127.56;2618965;54;20124;-77
2021/08/19 07:59:18;;;;;;;8.80;7.90;;;;;;;17.00;79.29;101124.09;2618862;54;20696;-78
2021/08/19 08:01:44;;;;;;;9.13;7.43;;;;;;;17.00;80.00;101122.38;2618725;54;20270;-78
2021/08/19 08:04:09;;;;;;;12.53;8.43;;;;;;;17.04;79.53;101118.91;2617998;54;20146;-78
2021/08/19 08:06:39;;;;;;;9.60;8.60;;;;;;;17.41;78.52;101117.97;2618531;54;20139;-78
2021/08/19 08:09:04;;;;;;;11.33;9.30;;;;;;;17.21;78.65;101116.28;2618458;54;20633;-78
2021/08/19 08:11:30;;;;;;;10.33;7.93;;;;;;;17.23;78.34;101120.56;2618170;54;20134;-78
2021/08/19 08:13:57;;;;;;;8.83;7.63;;;;;;;17.28;78.54;101116.28;2619039;39;20554;-77
2021/08/19 08:16:22;;;;;;;10.87;7.13;;;;;;;17.41;78.34;101122.28;2618992;54;20153;-77
2021/08/19 08:18:47;;;;;;;9.67;7.37;;;;;;;17.47;78.55;101123.13;2618204;54;20152;-75
2021/08/19 08:21:14;;;;;;;9.80;7.03;;;;;;;17.86;78.48;101120.34;2617827;54;20120;-77
2021/08/19 08:23:43;;;;;;;9.00;6.73;;;;;;;18.23;76.49;101120.97;2619203;39;20561;-79
2021/08/19 08:26:10;;;;;;;9.23;5.93;;;;;;;18.33;75.99;101130.44;2619894;54;20131;-81
2021/08/19 08:28:36;;;;;;;8.10;4.90;;;;;;;18.40;75.03;101126.91;2620252;54;20199;-80
2021/08/19 08:31:03;;;;;;;7.50;6.03;;;;;;;18.45;74.00;101128.59;2623873;54;20163;-77
2021/08/19 08:33:31;;;;;;;7.07;5.37;;;;;;;18.25;73.32;101127.00;2619214;54;20123;-79
2021/08/19 08:35:56;;;;;;;6.33;5.13;;;;;;;18.06;74.13;101139.22;2619322;54;20135;-80
2021/08/19 08:38:22;;;;;;;7.37;5.67;;;;;;;18.01;74.46;101140.13;2618996;54;20151;-79
2021/08/19 08:40:50;;;;;;;7.27;5.40;;;;;;;17.89;75.22;101145.38;2618948;54;20131;-78
2021/08/19 08:43:17;;;;;;;5.37;4.83;;;;;;;17.90;74.99;101152.25;2620080;39;20544;-78
2021/08/19 08:45:43;;;;;;;6.77;5.37;;;;;;;18.19;76.08;101143.44;2619429;54;20160;-80
2021/08/19 08:48:14;;;;;;;6.20;5.60;;;;;;;19.06;71.54;101147.03;2618233;54;20169;-78
2021/08/19 08:50:41;;;;;;;6.80;5.50;;;;;;;19.25;72.36;101139.09;2618262;54;20139;-79
2021/08/19 08:53:11;;;;;;;7.43;4.87;;;;;;;19.40;72.05;101146.69;2617833;47;20131;-78
2021/08/19 08:55:37;;;;;;;5.33;4.83;;;;;;;19.54;68.86;101139.63;2618999;54;20130;-79
2021/08/19 08:58:03;;;;;;;5.03;4.47;;;;;;;19.59;68.93;101144.75;2618505;54;20170;-80
2021/08/19 09:00:29;;;;;;;5.83;4.77;;;;;;;19.36;70.65;101146.75;2618909;54;20131;-80
2021/08/19 09:02:55;;;;;;;7.67;5.13;;;;;;;19.41;71.07;101153.63;2619160;54;20116;-77
2021/08/19 09:05:23;;;;;;;6.30;5.70;;;;;;;19.46;70.73;101148.38;2618232;54;20151;-78
2021/08/19 09:07:54;;;;;;;7.17;5.70;;;;;;;19.91;68.52;101150.41;2619151;39;20532;-77
2021/08/19 09:10:22;;;;;;;9.47;6.23;;;;;;;20.32;67.82;101154.13;2619137;39;20819;-77
2021/08/19 09:12:47;;;;;;;7.13;5.53;;;;;;;20.39;66.97;101149.69;2618367;54;20108;-78
2021/08/19 09:15:15;;;;;;;7.50;5.23;;;;;;;20.55;65.41;101148.59;2618139;54;20140;-78
2021/08/19 09:17:49;;;;;;;6.73;5.67;;;;;;;20.50;66.86;101156.44;2618904;39;20624;-79
2021/08/19 09:20:15;;;;;;;6.33;5.00;;;;;;;20.77;66.66;101152.56;2618508;54;20215;-77
2021/08/19 09:23:05;;;;;;;10.97;6.43;;;;;;;21.36;62.91;101149.72;2619103;54;20158;-80
2021/08/19 09:25:44;;;;;;;8.97;5.90;;;;;;;21.50;62.57;101151.19;2620117;54;20167;-80
2021/08/19 09:28:25;;;;;;;8.70;5.80;;;;;;;21.38;60.94;101146.19;2620235;54;20171;-82
2021/08/19 09:31:03;;;;;;;10.43;5.83;;;;;;;21.33;62.40;101144.59;2620758;47;20958;-80
2021/08/19 09:33:30;;;;;;;5.40;4.30;;;;;;;21.62;59.95;101139.63;2621004;54;20629;-78
2021/08/19 09:35:59;;;;;;;6.00;4.70;;;;;;;21.61;60.34;101148.34;2620615;54;20138;-79
2021/08/19 09:38:26;;;;;;;6.30;4.13;;;;;;;21.82;59.89;101133.16;2620750;54;20942;-79
2021/08/19 09:41:17;;;;;;;5.40;3.97;;;;;;;21.42;61.21;101142.66;2620812;54;20127;-79
2021/08/19 09:43:47;;;;;;;5.23;4.20;;;;;;;21.28;62.02;101143.81;2620822;54;20183;-79
2021/08/19 09:46:17;;;;;;;4.67;3.83;;;;;;;21.11;62.29;101149.34;2619692;54;20155;-79
2021/08/19 09:48:44;;;;;;;5.10;3.77;;;;;;;21.13;63.05;101144.09;2620004;54;20197;-80
2021/08/19 09:51:17;;;;;;;6.20;4.27;;;;;;;21.21;62.67;101142.22;2621251;52;20155;-78
2021/08/19 09:53:48;;;;;;;5.23;3.90;;;;;;;21.39;62.22;101140.13;2621469;54;20263;-78
2021/08/19 09:56:24;;;;;;;8.40;4.97;;;;;;;21.34;61.03;101141.09;2619925;54;20219;-78
2021/08/19 09:58:49;;;;;;;7.03;4.90;;;;;;;21.06;61.33;101147.72;2619639;54;20230;-78
2021/08/19 10:01:15;;;;;;;6.00;4.60;;;;;;;21.22;62.18;101146.53;2619491;54;20691;-79
2021/08/19 10:03:40;;;;;;;5.73;4.50;;;;;;;21.02;61.82;101146.91;2619983;54;20259;-77
2021/08/19 10:06:06;;;;;;;5.97;4.30;;;;;;;20.63;63.40;101144.13;2619637;54;20131;-81
2021/08/19 10:08:32;;;;;;;5.53;4.20;;;;;;;20.69;63.88;101139.63;2619506;46;20155;-78
2021/08/19 10:10:59;;;;;;;6.00;4.30;;;;;;;20.70;62.80;101145.72;2619522;54;20246;-78
2021/08/19 10:13:25;;;;;;;5.70;3.97;;;;;;;20.57;63.37;101145.06;2619136;54;20123;-80
2021/08/19 10:15:52;;;;;;;5.30;4.80;;;;;;;20.18;64.13;101142.25;2619620;54;20695;-79
2021/08/19 10:18:28;;;;;;;7.20;4.93;;;;;;;19.98;65.36;101142.47;2619913;54;20170;-79
2021/08/19 10:21:14;;;;;;;5.53;4.67;;;;;;;20.18;65.13;101147.44;2619498;54;20127;-80
2021/08/19 10:23:42;;;;;;;6.70;5.27;;;;;;;19.82;66.26;101150.53;2619603;54;20128;-79
2021/08/19 10:26:10;;;;;;;7.20;4.60;;;;;;;19.95;66.00;101141.69;2619228;54;20155;-79
2021/08/19 10:28:52;;;;;;;8.33;5.23;;;;;;;19.90;64.62;101148.69;2618372;54;20143;-80
2021/08/19 10:31:36;;;;;;;7.57;4.90;;;;;;;19.91;64.00;101150.41;2618990;54;20672;-81
2021/08/19 10:34:06;;;;;;;7.23;4.97;;;;;;;19.77;64.72;101150.56;2618752;54;20166;-79
2021/08/19 10:36:38;;;;;;;5.07;4.27;;;;;;;19.72;66.02;101159.31;2617950;47;20261;-77
2021/08/19 10:39:18;;;;;;;7.17;4.27;;;;;;;19.37;67.73;101154.53;2621013;54;20181;-76
2021/08/19 10:41:43;;;;;;;5.53;4.10;;;;;;;19.15;69.58;101165.13;2619377;47;20124;-78
2021/08/19 10:44:11;;;;;;;6.80;4.90;;;;;;;19.07;71.00;101170.41;2619418;54;20130;-79
2021/08/19 10:46:55;;;;;;;6.57;4.67;;;;;;;18.90;71.38;101168.84;2618926;54;20135;-80
2021/08/19 10:49:30;;;;;;;5.27;4.53;;;;;;;18.92;71.53;101156.72;2620006;54;20223;-80
2021/08/19 10:52:16;;;;;;;5.83;4.93;;;;;;;18.67;72.49;101165.59;2619399;54;20135;-79
2021/08/19 10:54:50;;;;;;;6.30;4.67;;;;;;;18.60;73.19;101167.38;2618856;54;20135;-79
2021/08/19 10:57:39;;;;;;;6.83;4.90;;;;;;;18.55;72.45;101168.28;2618968;54;20227;-78
2021/08/19 11:00:11;;;;;;;7.03;4.50;;;;;;;18.28;73.16;101171.06;2619421;54;20135;-80
2021/08/19 11:02:48;;;;;;;7.33;5.20;;;;;;;18.37;73.19;101169.28;2617442;54;20131;-78
2021/08/19 11:05:52;;;;;;;8.07;5.20;;;;;;;18.25;73.51;101177.13;2618244;39;20524;-79
2021/08/19 11:08:36;;;;;;;8.93;5.43;;;;;;;18.11;73.31;101173.78;2618781;39;20647;-78
2021/08/19 11:11:02;;;;;;;7.37;5.03;;;;;;;18.25;73.75;101169.34;2618267;47;20139;-78
2021/08/19 11:13:28;;;;;;;9.07;5.83;;;;;;;18.30;74.04;101165.00;2618493;54;20139;-78
2021/08/19 11:15:53;;;;;;;7.70;5.57;;;;;;;18.44;73.73;101170.09;2618359;54;20123;-78
2021/08/19 11:18:25;;;;;;;6.90;5.40;;;;;;;18.76;73.19;101168.13;2619363;54;20143;-80
2021/08/19 11:20:51;;;;;;;6.63;5.57;;;;;;;19.04;72.83;101154.00;2617879;54;20136;-77
2021/08/19 11:23:16;;;;;;;5.77;4.80;;;;;;;19.28;72.18;101164.16;2618823;54;20786;-78